createdAt,value
2023-02-09T00:00:02.037Z,-3.10
2023-02-09T00:02:29.398Z,-3.10
2023-02-09T00:04:56.278Z,-3.20
2023-02-09T00:07:23.085Z,-3.20
2023-02-09T00:09:51.857Z,-3.20
2023-02-09T00:12:37.818Z,-3.20
2023-02-09T00:15:06.370Z,-3.30
2023-02-09T00:17:37.260Z,-3.30
2023-02-09T00:20:05.711Z,-3.30
2023-02-09T00:22:33.064Z,-3.30
2023-02-09T00:25:00.110Z,-3.40
2023-02-09T00:27:27.010Z,-3.40
2023-02-09T00:29:53.917Z,-3.40
2023-02-09T00:32:20.753Z,-3.40
2023-02-09T00:34:47.691Z,-3.50
2023-02-09T00:37:14.603Z,-3.50
2023-02-09T00:39:41.454Z,-3.60
2023-02-09T00:42:08.299Z,-3.60
2023-02-09T00:44:37.409Z,-3.60
2023-02-09T00:47:05.274Z,-3.60
2023-02-09T00:49:33.555Z,-3.60
2023-02-09T00:52:00.467Z,-3.60
2023-02-09T00:54:27.497Z,-3.60
2023-02-09T00:56:54.324Z,-3.60
2023-02-09T00:59:21.228Z,-3.70
2023-02-09T01:01:48.089Z,-3.70
2023-02-09T01:04:14.974Z,-3.70
2023-02-09T01:06:41.883Z,-3.70
2023-02-09T01:09:08.698Z,-3.70
2023-02-09T01:11:35.614Z,-3.70
2023-02-09T01:14:04.438Z,-3.80
2023-02-09T01:16:31.820Z,-3.80
2023-02-09T01:19:01.461Z,-3.80
2023-02-09T01:21:28.786Z,-3.80
2023-02-09T01:23:55.802Z,-3.80
2023-02-09T01:26:23.015Z,-3.80
2023-02-09T01:28:52.057Z,-3.80
2023-02-09T01:31:31.490Z,-3.80
2023-02-09T01:34:00.191Z,-3.80
2023-02-09T01:36:27.684Z,-3.80
2023-02-09T01:38:56.166Z,-3.80
2023-02-09T01:41:23.218Z,-3.80
2023-02-09T01:44:03.139Z,-3.80
2023-02-09T01:46:32.534Z,-3.80
2023-02-09T01:49:16.114Z,-3.90
2023-02-09T01:51:44.944Z,-3.90
2023-02-09T01:54:16.836Z,-3.90
2023-02-09T01:56:48.445Z,-4.00
2023-02-09T01:59:16.478Z,-4.00
2023-02-09T02:01:44.249Z,-4.00
2023-02-09T02:04:11.777Z,-4.00
2023-02-09T02:06:39.052Z,-4.00
2023-02-09T02:09:13.555Z,-4.00
2023-02-09T02:11:43.243Z,-4.10
2023-02-09T02:14:34.261Z,-4.10
2023-02-09T02:17:26.915Z,-4.10
2023-02-09T02:20:15.015Z,-4.10
2023-02-09T02:23:13.926Z,-4.10
2023-02-09T02:26:07.096Z,-4.10
2023-02-09T02:29:00.161Z,-4.10
2023-02-09T02:31:51.268Z,-4.20
2023-02-09T02:34:18.094Z,-4.10
2023-02-09T02:36:52.258Z,-4.20
2023-02-09T02:39:37.433Z,-4.20
2023-02-09T02:42:39.796Z,-4.20
2023-02-09T02:45:11.143Z,-4.30
2023-02-09T02:47:42.498Z,-4.30
2023-02-09T02:50:14.782Z,-4.30
2023-02-09T02:52:46.051Z,-4.40
2023-02-09T02:55:17.083Z,-4.30
2023-02-09T02:57:49.465Z,-4.40
2023-02-09T03:00:30.470Z,-4.40
2023-02-09T03:03:02.310Z,-4.50
2023-02-09T03:05:30.713Z,-4.50
2023-02-09T03:07:57.589Z,-4.50
2023-02-09T03:10:32.648Z,-4.50
2023-02-09T03:13:08.317Z,-4.50
2023-02-09T03:15:41.317Z,-4.60
2023-02-09T03:18:18.818Z,-4.60
2023-02-09T03:20:55.134Z,-4.60
2023-02-09T03:23:45.652Z,-4.60
2023-02-09T03:26:22.422Z,-4.60
2023-02-09T03:28:54.412Z,-4.50
2023-02-09T03:31:23.142Z,-4.50
2023-02-09T03:33:50.756Z,-4.50
2023-02-09T03:36:20.017Z,-4.50
2023-02-09T03:38:46.830Z,-4.50
2023-02-09T03:41:13.804Z,-4.50
2023-02-09T03:43:59.133Z,-4.50
2023-02-09T03:46:26.076Z,-4.50
2023-02-09T03:48:52.912Z,-4.50
2023-02-09T03:51:19.735Z,-4.50
2023-02-09T03:53:47.277Z,-4.40
2023-02-09T03:56:14.176Z,-4.40
2023-02-09T03:58:40.998Z,-4.40
2023-02-09T04:01:10.530Z,-4.40
2023-02-09T04:03:39.931Z,-4.40
2023-02-09T04:06:10.019Z,-4.40
2023-02-09T04:08:37.159Z,-4.40
2023-02-09T04:11:04.121Z,-4.40
2023-02-09T04:13:31.107Z,-4.40
2023-02-09T04:15:58.034Z,-4.40
2023-02-09T04:18:24.888Z,-4.40
2023-02-09T04:20:51.733Z,-4.40
2023-02-09T04:23:20.927Z,-4.40
2023-02-09T04:25:47.956Z,-4.40
2023-02-09T04:28:14.858Z,-4.40
2023-02-09T04:30:43.835Z,-4.50
2023-02-09T04:33:11.411Z,-4.50
2023-02-09T04:35:38.603Z,-4.50
2023-02-09T04:38:05.466Z,-4.50
2023-02-09T04:40:32.264Z,-4.50
2023-02-09T04:42:59.099Z,-4.50
2023-02-09T04:45:25.898Z,-4.50
2023-02-09T04:47:52.729Z,-4.60
2023-02-09T04:50:19.638Z,-4.60
2023-02-09T04:52:46.520Z,-4.60
2023-02-09T04:55:13.390Z,-4.60
2023-02-09T04:57:59.110Z,-4.60
2023-02-09T05:00:25.946Z,-4.70
2023-02-09T05:02:54.050Z,-4.70
2023-02-09T05:05:21.103Z,-4.70
2023-02-09T05:07:47.978Z,-4.70
2023-02-09T05:10:14.883Z,-4.70
2023-02-09T05:12:41.705Z,-4.80
2023-02-09T05:15:08.983Z,-4.80
2023-02-09T05:17:35.861Z,-4.80
2023-02-09T05:20:03.085Z,-4.80
2023-02-09T05:22:29.894Z,-4.80
2023-02-09T05:24:56.701Z,-4.80
2023-02-09T05:27:23.564Z,-4.80
2023-02-09T05:29:50.454Z,-4.80
2023-02-09T05:32:17.581Z,-4.80
2023-02-09T05:34:44.472Z,-4.80
2023-02-09T05:37:11.281Z,-4.80
2023-02-09T05:39:38.078Z,-4.80
2023-02-09T05:42:16.922Z,-4.80
2023-02-09T05:44:45.789Z,-4.90
2023-02-09T05:47:13.775Z,-4.90
2023-02-09T05:49:40.685Z,-4.90
2023-02-09T05:52:08.308Z,-4.90
2023-02-09T05:54:35.226Z,-4.90
2023-02-09T05:57:02.337Z,-4.90
2023-02-09T05:59:29.224Z,-4.90
2023-02-09T06:01:56.170Z,-4.90
2023-02-09T06:04:25.496Z,-4.90
2023-02-09T06:06:52.745Z,-4.90
2023-02-09T06:09:20.079Z,-4.90
2023-02-09T06:11:47.342Z,-4.90
2023-02-09T06:14:14.331Z,-5.00
2023-02-09T06:16:41.754Z,-5.00
2023-02-09T06:19:16.008Z,-5.00
2023-02-09T06:21:43.171Z,-5.00
2023-02-09T06:24:10.192Z,-5.00
2023-02-09T06:26:37.445Z,-4.90
2023-02-09T06:29:04.457Z,-4.90
2023-02-09T06:31:31.499Z,-4.90
2023-02-09T06:33:58.402Z,-4.90
2023-02-09T06:36:25.291Z,-4.90
2023-02-09T06:38:52.251Z,-4.80
2023-02-09T06:41:19.120Z,-4.80
2023-02-09T06:43:46.028Z,-4.70
2023-02-09T06:46:13.700Z,-4.70
2023-02-09T06:48:41.016Z,-4.60
2023-02-09T06:51:10.447Z,-4.60
2023-02-09T06:53:38.606Z,-4.40
2023-02-09T06:56:06.994Z,-3.80
2023-02-09T06:58:34.629Z,-2.80
2023-02-09T07:01:06.376Z,-1.80
2023-02-09T07:03:33.470Z,-0.80
2023-02-09T07:06:14.972Z,0.10
2023-02-09T07:08:43.183Z,1.00
2023-02-09T07:11:12.551Z,1.80
2023-02-09T07:13:39.513Z,2.60
2023-02-09T07:16:08.709Z,3.50
2023-02-09T07:18:36.099Z,4.20
2023-02-09T07:21:06.592Z,4.90
2023-02-09T07:23:33.493Z,5.60
2023-02-09T07:26:08.950Z,5.90
2023-02-09T07:28:36.632Z,5.10
2023-02-09T07:31:06.186Z,3.80
2023-02-09T07:33:34.781Z,4.00
2023-02-09T07:36:05.302Z,5.30
2023-02-09T07:38:32.485Z,6.40
2023-02-09T07:41:01.166Z,7.40
2023-02-09T07:43:28.107Z,8.20
2023-02-09T07:46:00.862Z,8.90
2023-02-09T07:48:28.017Z,10.30
2023-02-09T07:50:55.082Z,11.00
2023-02-09T07:53:22.904Z,11.90
2023-02-09T07:55:49.814Z,12.60
2023-02-09T07:58:18.402Z,13.00
2023-02-09T08:00:46.406Z,13.40
2023-02-09T08:03:15.833Z,14.30
2023-02-09T08:06:06.231Z,15.20
2023-02-09T08:08:33.206Z,16.30
2023-02-09T08:11:04.281Z,17.30
2023-02-09T08:13:35.880Z,17.80
2023-02-09T08:16:06.196Z,17.90
2023-02-09T08:18:37.795Z,18.00
2023-02-09T08:21:08.632Z,18.30
2023-02-09T08:23:36.973Z,18.80
2023-02-09T08:26:10.580Z,19.20
2023-02-09T08:28:44.411Z,19.70
2023-02-09T08:31:17.895Z,19.90
2023-02-09T08:33:46.467Z,20.30
2023-02-09T08:36:14.396Z,20.50
2023-02-09T08:38:41.586Z,20.80
2023-02-09T08:41:11.079Z,20.80
2023-02-09T08:43:38.059Z,21.30
2023-02-09T08:46:13.328Z,21.40
2023-02-09T08:48:43.042Z,21.60
2023-02-09T08:51:12.080Z,22.10
2023-02-09T08:53:39.915Z,21.20
2023-02-09T08:56:07.139Z,22.20
2023-02-09T08:58:34.009Z,22.80
2023-02-09T09:01:01.158Z,22.90
2023-02-09T09:03:31.600Z,23.10
2023-02-09T09:06:04.297Z,23.10
2023-02-09T09:08:32.514Z,23.60
2023-02-09T09:10:59.358Z,23.80
2023-02-09T09:13:26.686Z,23.80
2023-02-09T09:15:55.433Z,23.60
2023-02-09T09:18:24.412Z,23.50
2023-02-09T09:20:51.836Z,24.70
2023-02-09T09:23:19.050Z,23.40
2023-02-09T09:25:46.197Z,23.00
2023-02-09T09:28:13.358Z,23.70
2023-02-09T09:30:40.349Z,23.50
2023-02-09T09:33:07.300Z,22.80
2023-02-09T09:35:34.205Z,22.70
2023-02-09T09:38:01.723Z,22.80
2023-02-09T09:40:32.974Z,22.90
2023-02-09T09:46:39.744Z,22.30
2023-02-09T09:49:23.256Z,21.80
2023-02-09T09:51:55.223Z,21.40
2023-02-09T09:54:25.636Z,20.40
2023-02-09T09:56:54.972Z,19.70
2023-02-09T09:59:56.280Z,18.70
2023-02-09T10:02:30.280Z,18.30
2023-02-09T10:05:21.743Z,18.10
2023-02-09T10:08:16.186Z,18.00
2023-02-09T10:11:05.758Z,17.10
2023-02-09T10:13:35.087Z,16.20
2023-02-09T10:16:02.607Z,15.40
2023-02-09T10:18:31.183Z,14.90
2023-02-09T10:21:06.932Z,14.30
2023-02-09T10:23:45.296Z,13.30
2023-02-09T10:26:25.967Z,12.60
2023-02-09T10:28:58.076Z,12.40
2023-02-09T10:31:47.798Z,12.00
2023-02-09T10:34:18.159Z,11.60
2023-02-09T10:36:51.920Z,11.20
2023-02-09T10:39:30.288Z,11.00
2023-02-09T10:42:12.372Z,10.30
2023-02-09T10:44:40.383Z,9.80
2023-02-09T10:47:11.819Z,9.40
2023-02-09T10:49:42.226Z,9.20
2023-02-09T10:52:24.163Z,9.30
2023-02-09T10:54:56.667Z,9.30
2023-02-09T10:57:45.537Z,9.50
2023-02-09T11:00:24.851Z,9.80
2023-02-09T11:02:55.036Z,10.20
2023-02-09T11:05:22.029Z,10.40
2023-02-09T11:08:21.330Z,10.60
2023-02-09T11:11:09.370Z,10.60
2023-02-09T11:13:37.204Z,10.70
2023-02-09T11:16:21.850Z,10.50
2023-02-09T11:19:00.143Z,10.60
2023-02-09T11:21:54.817Z,10.10
2023-02-09T11:24:36.388Z,9.80
2023-02-09T11:27:27.171Z,9.60
2023-02-09T11:30:24.518Z,9.40
2023-02-09T11:33:10.098Z,9.00
2023-02-09T11:35:48.003Z,8.70
2023-02-09T11:38:19.027Z,8.50
2023-02-09T11:40:55.721Z,8.30
2023-02-09T11:43:38.174Z,8.10
2023-02-09T11:46:14.157Z,7.70
2023-02-09T11:48:45.755Z,7.60
2023-02-09T11:51:23.140Z,7.60
2023-02-09T11:54:16.873Z,7.50
2023-02-09T11:56:56.004Z,7.70
2023-02-09T11:59:30.826Z,7.70
2023-02-09T12:02:16.466Z,7.70
2023-02-09T12:05:02.843Z,7.70
2023-02-09T12:07:43.658Z,7.80
2023-02-09T12:10:23.827Z,7.90
2023-02-09T12:13:00.513Z,8.00
2023-02-09T12:15:38.643Z,8.00
2023-02-09T12:18:21.333Z,7.90
2023-02-09T12:20:56.272Z,7.90
2023-02-09T12:23:41.100Z,7.70
2023-02-09T12:26:16.780Z,7.70
2023-02-09T12:28:48.202Z,7.80
2023-02-09T12:31:26.977Z,7.80
2023-02-09T12:33:59.902Z,7.70
2023-02-09T12:36:33.007Z,7.50
2023-02-09T12:39:24.360Z,7.50
2023-02-09T12:41:51.221Z,7.30
2023-02-09T12:44:19.428Z,7.10
2023-02-09T12:46:51.891Z,7.00
2023-02-09T12:49:31.554Z,6.90
2023-02-09T12:52:01.185Z,6.90
2023-02-09T12:54:53.273Z,6.90
2023-02-09T12:57:23.899Z,6.90
2023-02-09T12:59:51.097Z,6.90
2023-02-09T13:02:35.898Z,7.00
2023-02-09T13:05:37.452Z,7.10
2023-02-09T13:08:16.368Z,7.20
2023-02-09T13:10:46.010Z,7.20
2023-02-09T13:13:12.840Z,7.30
2023-02-09T13:16:12.681Z,7.40
2023-02-09T13:19:09.859Z,7.40
2023-02-09T13:22:16.571Z,7.40
2023-02-09T13:24:56.614Z,7.30
2023-02-09T13:27:25.082Z,7.40
2023-02-09T13:29:54.112Z,7.40
2023-02-09T13:32:48.791Z,7.50
2023-02-09T13:35:23.890Z,7.50
2023-02-09T13:37:59.424Z,7.60
2023-02-09T13:40:29.773Z,7.70
2023-02-09T13:43:13.683Z,7.70
2023-02-09T13:45:49.413Z,7.70
2023-02-09T13:48:27.620Z,7.80
2023-02-09T13:50:56.752Z,7.80
2023-02-09T13:53:26.218Z,7.80
2023-02-09T13:55:56.531Z,7.80
2023-02-09T13:58:33.052Z,7.80
2023-02-09T14:01:09.134Z,7.70
2023-02-09T14:03:58.349Z,7.60
2023-02-09T14:06:28.284Z,7.60
2023-02-09T14:08:57.797Z,7.50
2023-02-09T14:11:42.345Z,7.50
2023-02-09T14:14:19.119Z,7.40
2023-02-09T14:16:53.440Z,7.30
2023-02-09T14:19:31.268Z,7.30
2023-02-09T14:21:59.620Z,7.30
2023-02-09T14:24:28.411Z,7.30
2023-02-09T14:27:16.403Z,7.20
2023-02-09T14:29:47.325Z,7.20
2023-02-09T14:32:35.761Z,7.00
2023-02-09T14:35:30.006Z,6.80
2023-02-09T14:38:01.194Z,6.50
2023-02-09T14:40:28.275Z,6.30
2023-02-09T14:43:20.055Z,6.10
2023-02-09T14:45:57.193Z,5.90
2023-02-09T14:48:29.455Z,5.70
2023-02-09T14:51:00.444Z,5.60
2023-02-09T14:53:33.460Z,5.40
2023-02-09T14:56:00.578Z,5.30
2023-02-09T14:58:32.585Z,5.20
2023-02-09T15:01:01.694Z,5.10
2023-02-09T15:03:29.024Z,4.90
2023-02-09T15:05:59.093Z,4.80
2023-02-09T15:08:28.483Z,4.70
2023-02-09T15:10:59.121Z,4.60
2023-02-09T15:13:29.156Z,4.50
2023-02-09T15:15:56.289Z,4.40
2023-02-09T15:18:25.999Z,4.30
2023-02-09T15:20:53.430Z,4.30
2023-02-09T15:23:20.402Z,4.20
2023-02-09T15:25:48.129Z,4.10
2023-02-09T15:28:28.259Z,4.00
2023-02-09T15:30:56.674Z,4.00
2023-02-09T15:33:25.246Z,3.90
2023-02-09T15:35:52.165Z,3.90
2023-02-09T15:38:19.231Z,3.80
2023-02-09T15:41:09.053Z,3.80
2023-02-09T15:43:54.678Z,3.80
2023-02-09T15:46:40.383Z,3.70
2023-02-09T15:49:07.679Z,3.60
2023-02-09T15:51:37.337Z,3.60
2023-02-09T15:54:09.289Z,3.50
2023-02-09T15:56:37.176Z,3.50
2023-02-09T15:59:05.691Z,3.40
2023-02-09T16:01:34.550Z,3.40
2023-02-09T16:04:13.586Z,3.40
2023-02-09T16:06:45.416Z,3.40
2023-02-09T16:09:18.962Z,3.30
2023-02-09T16:11:48.476Z,3.30
2023-02-09T16:14:20.760Z,3.30
2023-02-09T16:16:48.297Z,3.40
2023-02-09T16:19:16.849Z,3.10
2023-02-09T16:21:49.976Z,3.20
2023-02-09T16:24:32.847Z,3.00
2023-02-09T16:27:02.048Z,2.90
2023-02-09T16:29:29.093Z,3.90
2023-02-09T16:31:56.010Z,2.80
2023-02-09T16:34:22.860Z,2.70
2023-02-09T16:36:50.259Z,3.60
2023-02-09T16:39:19.698Z,2.60
2023-02-09T16:41:50.835Z,2.50
2023-02-09T16:44:19.673Z,2.50
2023-02-09T16:46:48.956Z,2.40
2023-02-09T16:49:40.062Z,2.40
2023-02-09T16:52:21.002Z,2.40
2023-02-09T16:54:51.374Z,2.30
2023-02-09T16:57:23.114Z,2.30
2023-02-09T16:59:51.249Z,2.30
2023-02-09T17:02:39.765Z,2.30
2023-02-09T17:05:21.142Z,2.40
2023-02-09T17:07:55.144Z,2.40
2023-02-09T17:10:26.296Z,2.40
2023-02-09T17:12:53.872Z,3.60
2023-02-09T17:15:30.130Z,2.40
2023-02-09T17:18:03.559Z,2.40
2023-02-09T17:20:37.720Z,2.40
2023-02-09T17:23:05.122Z,2.40
2023-02-09T17:25:32.047Z,2.30
2023-02-09T17:27:59.071Z,2.50
2023-02-09T17:30:26.387Z,2.70
2023-02-09T17:33:00.363Z,2.30
2023-02-09T17:35:53.131Z,2.20
2023-02-09T17:38:23.097Z,2.30
2023-02-09T17:40:51.439Z,4.20
2023-02-09T17:43:18.442Z,2.30
2023-02-09T17:45:50.794Z,2.20
2023-02-09T17:48:18.716Z,2.10
2023-02-09T17:50:48.662Z,3.10
2023-02-09T17:53:21.495Z,2.10
2023-02-09T17:55:49.080Z,2.10
2023-02-09T17:58:16.884Z,2.10
2023-02-09T18:00:45.021Z,2.10
2023-02-09T18:03:16.727Z,2.10
2023-02-09T18:05:44.459Z,2.00
2023-02-09T18:08:11.568Z,2.00
2023-02-09T18:10:38.700Z,2.00
2023-02-09T18:13:05.985Z,1.90
2023-02-09T18:15:37.150Z,1.90
2023-02-09T18:18:04.595Z,1.90
2023-02-09T18:20:33.502Z,1.80
2023-02-09T18:23:02.809Z,1.80
2023-02-09T18:25:31.110Z,1.80
2023-02-09T18:27:57.982Z,1.70
2023-02-09T18:30:28.258Z,1.70
2023-02-09T18:32:56.023Z,1.70
2023-02-09T18:35:31.047Z,1.60
2023-02-09T18:37:57.886Z,1.60
2023-02-09T18:40:24.883Z,1.50
2023-02-09T18:42:52.011Z,1.50
2023-02-09T18:45:20.227Z,1.50
2023-02-09T18:47:47.411Z,1.50
2023-02-09T18:50:19.444Z,1.50
2023-02-09T18:52:47.394Z,1.50
2023-02-09T18:55:14.297Z,1.40
2023-02-09T18:57:41.214Z,1.40
2023-02-09T19:00:09.989Z,1.40
2023-02-09T19:02:36.885Z,1.40
2023-02-09T19:05:04.617Z,1.30
2023-02-09T19:07:33.416Z,1.30
2023-02-09T19:10:00.771Z,1.30
2023-02-09T19:12:28.441Z,1.30
2023-02-09T19:14:55.393Z,1.30
2023-02-09T19:17:22.510Z,1.40
2023-02-09T19:19:50.220Z,1.40
2023-02-09T19:22:20.181Z,1.40
2023-02-09T19:24:48.177Z,1.40
2023-02-09T19:27:17.243Z,1.40
2023-02-09T19:29:45.176Z,1.40
2023-02-09T19:32:14.486Z,1.40
2023-02-09T19:34:43.247Z,1.40
2023-02-09T19:37:12.804Z,1.50
2023-02-09T19:39:41.715Z,1.50
2023-02-09T19:42:08.990Z,1.40
2023-02-09T19:44:36.325Z,1.40
2023-02-09T19:47:03.406Z,1.40
2023-02-09T19:49:31.806Z,1.40
2023-02-09T19:51:59.261Z,1.40
2023-02-09T19:54:26.090Z,1.30
2023-02-09T19:56:53.200Z,1.30
2023-02-09T19:59:20.137Z,1.20
2023-02-09T20:01:47.123Z,1.20
2023-02-09T20:04:15.294Z,1.20
2023-02-09T20:06:42.536Z,1.20
2023-02-09T20:09:12.279Z,1.20
2023-02-09T20:11:39.217Z,1.10
2023-02-09T20:14:06.184Z,1.20
2023-02-09T20:16:33.393Z,1.10
2023-02-09T20:19:00.385Z,1.00
2023-02-09T20:21:27.422Z,1.00
2023-02-09T20:23:56.039Z,1.00
2023-02-09T20:26:27.146Z,0.90
2023-02-09T20:28:55.446Z,0.90
2023-02-09T20:31:28.186Z,0.80
2023-02-09T20:33:57.384Z,0.80
2023-02-09T20:36:25.575Z,0.80
2023-02-09T20:38:52.762Z,0.70
2023-02-09T20:41:19.604Z,0.70
2023-02-09T20:44:05.413Z,0.60
2023-02-09T20:46:52.278Z,0.60
2023-02-09T20:49:19.564Z,0.50
2023-02-09T20:51:47.364Z,0.50
2023-02-09T20:54:15.024Z,0.50
2023-02-09T20:56:42.168Z,0.50
2023-02-09T20:59:09.101Z,0.50
2023-02-09T21:01:39.866Z,0.50
2023-02-09T21:04:07.536Z,0.50
2023-02-09T21:06:37.110Z,0.40
2023-02-09T21:09:08.673Z,0.40
2023-02-09T21:11:35.678Z,0.40
2023-02-09T21:14:03.893Z,0.40
2023-02-09T21:16:31.492Z,0.40
2023-02-09T21:18:59.124Z,0.40
2023-02-09T21:21:27.186Z,0.50
2023-02-09T21:23:54.622Z,0.30
2023-02-09T21:26:24.695Z,0.30
2023-02-09T21:28:56.235Z,0.30
2023-02-09T21:31:27.017Z,0.30
2023-02-09T21:33:54.359Z,0.30
2023-02-09T21:36:21.188Z,0.30
2023-02-09T21:38:48.324Z,0.30
2023-02-09T21:41:42.400Z,0.30
2023-02-09T21:44:11.785Z,0.30
2023-02-09T21:46:39.126Z,0.30
2023-02-09T21:49:06.237Z,0.30
2023-02-09T21:51:33.416Z,0.30
2023-02-09T21:54:00.468Z,0.30
2023-02-09T21:56:27.389Z,0.30
2023-02-09T21:58:54.357Z,0.30
2023-02-09T22:01:21.499Z,0.30
2023-02-09T22:03:57.402Z,0.30
2023-02-09T22:06:25.657Z,0.30
2023-02-09T22:08:52.961Z,0.30
2023-02-09T22:11:19.896Z,0.30
2023-02-09T22:13:46.810Z,0.30
2023-02-09T22:16:18.730Z,0.30
2023-02-09T22:18:45.898Z,0.30
2023-02-09T22:21:12.908Z,0.30
2023-02-09T22:23:39.772Z,0.30
2023-02-09T22:26:07.507Z,0.30
2023-02-09T22:28:36.506Z,0.30
2023-02-09T22:31:14.751Z,0.40
2023-02-09T22:33:42.068Z,0.40
2023-02-09T22:36:12.517Z,0.30
2023-02-09T22:38:39.893Z,0.30
2023-02-09T22:41:21.500Z,0.40
2023-02-09T22:43:52.254Z,0.30
2023-02-09T22:46:20.688Z,0.30
2023-02-09T22:48:55.354Z,0.30
2023-02-09T22:51:24.215Z,0.30
2023-02-09T22:53:51.503Z,0.30
2023-02-09T22:56:18.442Z,0.30
2023-02-09T22:58:45.341Z,0.30
2023-02-09T23:01:13.280Z,0.30
2023-02-09T23:03:41.358Z,0.20
2023-02-09T23:06:12.009Z,0.20
2023-02-09T23:08:38.842Z,0.20
2023-02-09T23:11:08.940Z,0.10
2023-02-09T23:13:37.238Z,0.10
2023-02-09T23:16:14.258Z,0.10
2023-02-09T23:18:47.059Z,0.00
2023-02-09T23:21:14.785Z,0.00
2023-02-09T23:23:41.673Z,0.00
2023-02-09T23:26:08.626Z,0.00
2023-02-09T23:28:35.564Z,0.00
2023-02-09T23:31:07.398Z,-0.10
2023-02-09T23:33:36.471Z,0.00
2023-02-09T23:36:11.900Z,-0.10
2023-02-09T23:38:38.754Z,-0.10
2023-02-09T23:41:07.532Z,-0.10
2023-02-09T23:43:35.487Z,-0.10
2023-02-09T23:46:03.639Z,-0.10
2023-02-09T23:48:30.839Z,-0.10
2023-02-09T23:51:02.342Z,-0.10
2023-02-09T23:53:30.202Z,-0.10
2023-02-09T23:56:03.687Z,-0.10
2023-02-09T23:58:36.415Z,-0.10
